Time;durP1;ratioP1;P1;durP2;ratioP2;P2;SDS_P1;SDS_P2;PMS_P1;PMS_P2;Temp;Humidity;BMP_temperature;BMP_pressure;BME280_temperature;BME280_humidity;BME280_pressure;Samples;Min_cycle;Max_cycle;Signal;HPM_P1;HPM_P2
2022/05/27 00:00:21;;;;;;;1.83;1.25;;;21.70;58.40;;;;;;5077747;28;20222;-71
2022/05/27 00:02:50;;;;;;;2.05;1.40;;;21.70;58.40;;;;;;5096431;28;20243;-71
2022/05/27 00:05:17;;;;;;;2.35;1.63;;;21.70;58.40;;;;;;5078744;28;20214;-70
2022/05/27 00:07:44;;;;;;;1.40;1.30;;;21.70;58.40;;;;;;5086795;28;20223;-70
2022/05/27 00:10:12;;;;;;;1.50;1.40;;;21.70;58.40;;;;;;5075472;28;20276;-70
2022/05/27 00:12:39;;;;;;;1.60;1.50;;;21.70;58.30;;;;;;5075183;28;20279;-70
2022/05/27 00:15:06;;;;;;;1.52;1.40;;;21.70;58.30;;;;;;5058593;28;20185;-71
2022/05/27 00:17:32;;;;;;;1.38;1.27;;;21.60;58.20;;;;;;5075589;28;20237;-71
2022/05/27 00:19:57;;;;;;;1.40;1.30;;;21.70;58.30;;;;;;5080250;28;20181;-70
2022/05/27 00:22:23;;;;;;;1.40;1.30;;;21.70;58.30;;;;;;5087469;28;20199;-71
2022/05/27 00:24:49;;;;;;;1.70;1.13;;;21.60;58.20;;;;;;5095572;28;20632;-70
2022/05/27 00:27:15;;;;;;;1.80;1.27;;;21.70;58.30;;;;;;5079162;28;20197;-70
2022/05/27 00:29:41;;;;;;;1.30;1.20;;;21.70;58.30;;;;;;5078863;28;20204;-70
2022/05/27 00:32:07;;;;;;;1.35;1.10;;;21.70;58.30;;;;;;5097102;28;20176;-71
2022/05/27 00:34:33;;;;;;;1.92;1.10;;;21.70;58.30;;;;;;5095578;28;20267;-71
2022/05/27 00:37:04;;;;;;;1.30;1.20;;;21.70;58.30;;;;;;5078500;28;20440;-71
2022/05/27 00:39:31;;;;;;;1.35;1.23;;;21.70;58.40;;;;;;5079155;28;20173;-70
2022/05/27 00:41:57;;;;;;;1.30;1.13;;;21.70;58.40;;;;;;5079236;28;20240;-71
2022/05/27 00:44:22;;;;;;;1.30;1.20;;;21.70;58.40;;;;;;5095815;28;20185;-70
2022/05/27 00:46:49;;;;;;;1.13;0.90;;;21.60;58.30;;;;;;5096131;28;20208;-70
2022/05/27 00:49:25;;;;;;;1.52;1.30;;;21.70;58.40;;;;;;5095809;28;20168;-70
2022/05/27 00:52:08;;;;;;;1.20;1.10;;;21.60;58.30;;;;;;5084818;28;20176;-71
2022/05/27 00:54:34;;;;;;;1.45;1.27;;;21.60;58.40;;;;;;5041847;28;20188;-70
2022/05/27 00:57:18;;;;;;;1.20;1.10;;;21.70;58.30;;;;;;5075886;28;20244;-70
2022/05/27 00:59:50;;;;;;;1.40;1.10;;;21.60;58.20;;;;;;5057509;28;20185;-70
2022/05/27 01:02:17;;;;;;;1.50;1.40;;;21.60;58.20;;;;;;5073661;28;20194;-71
2022/05/27 01:04:45;;;;;;;1.50;1.40;;;21.60;58.20;;;;;;5083642;28;20196;-71
2022/05/27 01:07:11;;;;;;;1.55;1.40;;;21.60;58.20;;;;;;5094675;28;20196;-71
2022/05/27 01:09:41;;;;;;;0.98;0.98;;;21.60;58.20;;;;;;5077775;28;20211;-70
2022/05/27 01:12:28;;;;;;;1.00;1.00;;;21.60;58.30;;;;;;5081447;28;20205;-71
2022/05/27 01:15:43;;;;;;;1.15;1.05;;;21.60;58.20;;;;;;5100814;28;20633;-71
2022/05/27 01:21:40;;;;;;;0.88;0.88;;;21.60;58.20;;;;;;5089531;28;20205;-70
2022/05/27 01:24:34;;;;;;;1.63;1.00;;;21.60;58.30;;;;;;5049317;28;20205;-70
2022/05/27 01:27:26;;;;;;;2.42;1.30;;;21.60;58.30;;;;;;5077890;28;20220;-70
2022/05/27 01:30:16;;;;;;;1.25;1.15;;;21.60;58.30;;;;;;5085469;28;20223;-71
2022/05/27 01:32:55;;;;;;;2.38;1.13;;;21.60;58.20;;;;;;5098556;28;20240;-70
2022/05/27 01:36:05;;;;;;;1.00;1.00;;;21.60;58.30;;;;;;5082199;28;20226;-70
2022/05/27 01:38:49;;;;;;;1.08;0.98;;;21.60;58.20;;;;;;5119856;28;20184;-70
2022/05/27 01:41:57;;;;;;;1.40;1.30;;;21.60;58.20;;;;;;5120361;28;20160;-71
2022/05/27 01:45:12;;;;;;;1.10;1.00;;;21.60;58.20;;;;;;5119728;28;20229;-70
2022/05/27 01:47:43;;;;;;;1.30;1.17;;;21.60;58.30;;;;;;5119710;28;20176;-70
2022/05/27 01:50:37;;;;;;;1.33;1.23;;;21.60;58.30;;;;;;5106340;28;20205;-70
2022/05/27 01:53:15;;;;;;;1.10;1.10;;;21.60;58.20;;;;;;5089223;28;20181;-70
2022/05/27 01:55:48;;;;;;;1.00;0.90;;;21.60;58.20;;;;;;5080069;28;20207;-70
2022/05/27 01:58:23;;;;;;;1.00;1.00;;;21.60;58.20;;;;;;5097110;28;20187;-70
2022/05/27 02:00:50;;;;;;;1.20;1.10;;;21.50;58.20;;;;;;5080060;28;20184;-71
2022/05/27 02:03:44;;;;;;;1.30;1.20;;;21.50;58.20;;;;;;5071867;28;20248;-71
2022/05/27 02:06:34;;;;;;;1.08;1.08;;;21.60;58.90;;;;;;5069368;28;20275;-71
2022/05/27 02:09:15;;;;;;;1.30;1.20;;;21.50;58.20;;;;;;5076740;28;20184;-71
2022/05/27 02:11:46;;;;;;;1.50;1.38;;;21.60;58.30;;;;;;5060283;28;20170;-71
2022/05/27 02:14:38;;;;;;;1.10;1.10;;;21.50;58.10;;;;;;5077059;28;20668;-71
2022/05/27 02:17:11;;;;;;;1.67;1.00;;;21.50;58.20;;;;;;5077176;28;20265;-71
2022/05/27 02:19:47;;;;;;;0.98;0.98;;;21.50;58.20;;;;;;5079305;28;20184;-70
2022/05/27 02:22:21;;;;;;;1.13;1.10;;;21.50;58.20;;;;;;5075760;28;20206;-71
2022/05/27 02:25:01;;;;;;;1.20;1.10;;;21.50;58.20;;;;;;5077675;28;20244;-71
2022/05/27 02:27:35;;;;;;;1.05;1.05;;;21.50;58.20;;;;;;5077349;28;20255;-70
2022/05/27 02:30:07;;;;;;;1.33;1.10;;;21.50;58.20;;;;;;5076468;28;20215;-70
2022/05/27 02:35:07;;;;;;;0.90;0.90;;;21.50;58.20;;;;;;5093304;28;20186;-70
2022/05/27 02:35:42;;;;;;;1.00;1.00;;;21.50;58.20;;;;;;5077579;28;20277;-71
2022/05/27 02:38:07;;;;;;;0.85;0.85;;;21.50;58.20;;;;;;5076607;28;20193;-71
2022/05/27 02:40:46;;;;;;;2.58;1.25;;;21.50;58.20;;;;;;5060307;28;20204;-71
2022/05/27 02:43:32;;;;;;;1.20;1.10;;;21.50;58.20;;;;;;5077159;28;20216;-70
2022/05/27 02:46:16;;;;;;;1.25;1.15;;;21.50;58.20;;;;;;5077663;28;20679;-70
2022/05/27 02:49:17;;;;;;;2.42;1.92;;;21.50;58.20;;;;;;5076266;28;20227;-70
2022/05/27 02:52:02;;;;;;;2.17;1.98;;;21.50;58.20;;;;;;5085581;28;20173;-70
2022/05/27 02:54:45;;;;;;;1.40;1.30;;;21.50;58.80;;;;;;5080702;28;20660;-70
2022/05/27 02:57:23;;;;;;;1.50;1.40;;;21.50;58.20;;;;;;5076279;28;20230;-71
2022/05/27 02:59:51;;;;;;;1.83;1.70;;;21.50;58.20;;;;;;5075779;28;20223;-70
2022/05/27 03:02:18;;;;;;;2.22;1.70;;;21.50;58.20;;;;;;5078370;28;20220;-70
2022/05/27 03:04:55;;;;;;;1.70;1.50;;;21.50;58.20;;;;;;5059996;28;20178;-70
2022/05/27 03:07:37;;;;;;;1.60;1.50;;;21.50;58.20;;;;;;5075942;28;20262;-71
2022/05/27 03:10:44;;;;;;;1.52;1.42;;;21.50;58.20;;;;;;5077574;28;20196;-70
2022/05/27 03:13:19;;;;;;;2.03;1.50;;;21.50;58.20;;;;;;5076354;28;20178;-70
2022/05/27 03:16:13;;;;;;;1.27;1.17;;;21.50;58.20;;;;;;5076280;28;20250;-70
2022/05/27 03:18:58;;;;;;;1.45;1.35;;;21.50;58.20;;;;;;5077535;28;20173;-70
2022/05/27 03:21:35;;;;;;;1.40;1.30;;;21.50;58.20;;;;;;5086319;28;20557;-70
2022/05/27 03:24:20;;;;;;;1.65;1.50;;;21.50;58.20;;;;;;5060244;28;20174;-70
2022/05/27 03:27:05;;;;;;;1.55;1.42;;;21.50;58.20;;;;;;5060214;28;20259;-70
2022/05/27 03:29:50;;;;;;;1.40;1.30;;;21.50;58.20;;;;;;5076184;28;20185;-70
2022/05/27 03:32:35;;;;;;;1.75;1.40;;;21.50;58.80;;;;;;5060129;28;20192;-70
2022/05/27 03:35:07;;;;;;;1.60;1.40;;;21.50;58.20;;;;;;5077676;28;20204;-71
2022/05/27 03:37:46;;;;;;;1.42;1.33;;;21.50;58.20;;;;;;5077401;28;20205;-70
2022/05/27 03:40:35;;;;;;;1.38;1.27;;;21.50;58.20;;;;;;5076435;28;20261;-70
2022/05/27 03:43:02;;;;;;;1.48;1.25;;;21.50;58.20;;;;;;5074553;28;20229;-71
2022/05/27 03:45:29;;;;;;;1.50;1.40;;;21.50;58.20;;;;;;5092424;28;20178;-71
2022/05/27 03:47:55;;;;;;;1.40;1.30;;;21.50;58.20;;;;;;5074696;28;20210;-70
2022/05/27 03:50:25;;;;;;;1.70;1.17;;;21.40;58.00;;;;;;5082969;28;20216;-70
2022/05/27 03:52:54;;;;;;;1.17;1.10;;;21.40;58.00;;;;;;5084810;28;20224;-70
2022/05/27 03:55:25;;;;;;;1.40;1.30;;;21.40;58.10;;;;;;5058569;28;20186;-70
2022/05/27 03:57:51;;;;;;;1.02;1.02;;;21.40;58.10;;;;;;5076422;28;20253;-70
2022/05/27 04:00:18;;;;;;;1.42;1.20;;;21.40;58.10;;;;;;5074449;28;20236;-70
2022/05/27 04:02:45;;;;;;;1.40;1.27;;;21.40;58.10;;;;;;5075393;28;20217;-70
2022/05/27 04:05:16;;;;;;;1.50;1.40;;;21.50;58.80;;;;;;5075993;28;20265;-70
2022/05/27 04:07:43;;;;;;;1.45;1.30;;;21.40;58.20;;;;;;5076440;28;20193;-70
2022/05/27 04:10:09;;;;;;;1.88;1.60;;;21.50;58.20;;;;;;5074890;28;20192;-71
2022/05/27 04:12:36;;;;;;;1.40;1.30;;;21.40;58.10;;;;;;5078816;28;20188;-71
2022/05/27 04:15:04;;;;;;;1.90;1.27;;;21.40;58.10;;;;;;5075583;28;20197;-70
2022/05/27 04:17:30;;;;;;;1.10;1.00;;;21.40;58.10;;;;;;5077603;28;20213;-70
2022/05/27 04:20:03;;;;;;;1.48;1.00;;;21.40;58.10;;;;;;5081698;28;20250;-70
2022/05/27 04:22:29;;;;;;;1.30;1.20;;;21.40;58.10;;;;;;5071022;28;20205;-70
2022/05/27 04:24:56;;;;;;;1.40;1.30;;;21.40;58.10;;;;;;5059411;28;20177;-71
2022/05/27 04:27:22;;;;;;;1.65;1.25;;;21.40;58.10;;;;;;5075517;28;20668;-71
2022/05/27 04:29:50;;;;;;;1.30;1.13;;;21.40;58.10;;;;;;5075671;28;20192;-70
2022/05/27 04:32:18;;;;;;;1.58;1.30;;;21.40;58.10;;;;;;5076492;28;20189;-70
2022/05/27 04:34:44;;;;;;;1.73;1.27;;;21.40;58.10;;;;;;5076336;28;20205;-71
2022/05/27 04:37:11;;;;;;;1.25;1.05;;;21.40;58.10;;;;;;5075923;28;20206;-71
2022/05/27 04:39:38;;;;;;;1.15;1.15;;;21.40;58.10;;;;;;5075859;28;20189;-71
2022/05/27 04:42:05;;;;;;;1.38;1.27;;;21.40;58.10;;;;;;5059456;28;20255;-70
2022/05/27 04:44:31;;;;;;;1.20;1.10;;;21.40;58.20;;;;;;5076442;28;20177;-71
2022/05/27 04:46:56;;;;;;;1.38;1.25;;;21.40;58.20;;;;;;5078268;28;20255;-71
2022/05/27 04:52:06;;;;;;;1.20;1.10;;;21.40;58.20;;;;;;5089080;28;20182;-71
2022/05/27 04:54:32;;;;;;;1.33;1.02;;;21.40;58.20;;;;;;5063481;28;20186;-70
2022/05/27 04:56:59;;;;;;;1.20;1.05;;;21.40;58.20;;;;;;5079972;28;20211;-70
2022/05/27 04:59:25;;;;;;;1.30;1.15;;;21.40;58.20;;;;;;5062090;28;20181;-70
2022/05/27 05:01:51;;;;;;;1.05;1.00;;;21.40;58.20;;;;;;5078094;28;20213;-70
2022/05/27 05:04:17;;;;;;;1.30;1.20;;;21.40;58.20;;;;;;5061784;28;20232;-70
2022/05/27 05:06:44;;;;;;;1.00;1.00;;;21.40;58.80;;;;;;5079512;28;20204;-71
2022/05/27 05:09:11;;;;;;;1.40;1.30;;;21.40;58.20;;;;;;5078557;28;20249;-70
2022/05/27 05:11:38;;;;;;;2.05;1.35;;;21.40;58.30;;;;;;5079489;28;20264;-71
2022/05/27 05:14:03;;;;;;;1.48;1.38;;;21.40;58.30;;;;;;5079176;28;20182;-70
2022/05/27 05:16:29;;;;;;;1.20;1.10;;;21.40;58.30;;;;;;5079622;28;20205;-71
2022/05/27 05:18:56;;;;;;;2.25;1.27;;;21.40;58.20;;;;;;5079755;28;20173;-70
2022/05/27 05:21:21;;;;;;;1.50;1.33;;;21.40;58.30;;;;;;5073608;28;20178;-70
2022/05/27 05:23:47;;;;;;;1.20;1.10;;;21.40;58.30;;;;;;5097577;28;20185;-70
2022/05/27 05:26:13;;;;;;;1.52;1.23;;;21.40;58.30;;;;;;5082856;28;20201;-71
2022/05/27 05:28:39;;;;;;;1.20;1.10;;;21.40;58.30;;;;;;5082650;28;20188;-70
2022/05/27 05:31:06;;;;;;;0.90;0.90;;;21.40;58.30;;;;;;5099525;28;20661;-71
2022/05/27 05:33:32;;;;;;;1.33;1.23;;;21.40;58.30;;;;;;5081774;28;20189;-70
2022/05/27 05:35:59;;;;;;;1.17;1.08;;;21.40;58.30;;;;;;5098478;28;20675;-70
2022/05/27 05:38:26;;;;;;;1.05;1.05;;;21.40;58.30;;;;;;5119694;28;20188;-71
2022/05/27 05:40:52;;;;;;;1.20;1.10;;;21.40;58.30;;;;;;5120046;28;20643;-70
2022/05/27 05:43:17;;;;;;;1.40;1.13;;;21.40;58.30;;;;;;5106613;28;20202;-71
2022/05/27 05:45:43;;;;;;;1.20;1.10;;;21.40;58.30;;;;;;5092075;28;20208;-70
2022/05/27 05:48:09;;;;;;;1.48;1.05;;;21.40;58.30;;;;;;5064099;28;20190;-71
2022/05/27 05:50:36;;;;;;;1.15;0.93;;;21.40;58.40;;;;;;5087142;28;20181;-71
2022/05/27 05:53:01;;;;;;;1.27;1.17;;;21.40;58.30;;;;;;5089723;28;20230;-71
2022/05/27 05:55:27;;;;;;;1.02;0.98;;;21.40;58.30;;;;;;5098213;28;20173;-71
2022/05/27 05:57:53;;;;;;;1.25;1.15;;;21.40;58.30;;;;;;5097241;28;20276;-71
2022/05/27 06:00:24;;;;;;;0.93;0.90;;;21.50;58.40;;;;;;5097676;28;20230;-71
2022/05/27 06:02:50;;;;;;;1.27;1.00;;;21.40;58.30;;;;;;5098209;28;20216;-71
2022/05/27 06:05:16;;;;;;;1.25;1.15;;;21.40;58.30;;;;;;5090850;28;20185;-70
2022/05/27 06:07:43;;;;;;;1.25;1.17;;;21.50;58.40;;;;;;5085498;28;20189;-71
2022/05/27 06:10:12;;;;;;;0.98;0.98;;;21.50;58.40;;;;;;5097955;28;20188;-71
2022/05/27 06:12:39;;;;;;;2.03;1.25;;;21.50;58.40;;;;;;5090225;28;20209;-71
2022/05/27 06:15:09;;;;;;;1.00;1.00;;;21.50;58.40;;;;;;5089506;28;20193;-71
2022/05/27 06:17:35;;;;;;;1.38;1.15;;;21.50;58.40;;;;;;5079529;28;20205;-71
2022/05/27 06:20:04;;;;;;;1.02;0.95;;;21.50;58.40;;;;;;5092545;28;20188;-70
2022/05/27 06:22:31;;;;;;;0.95;0.95;;;21.50;58.30;;;;;;5082176;28;20205;-71
2022/05/27 06:24:59;;;;;;;1.35;0.73;;;21.50;58.40;;;;;;5077520;28;20657;-71
2022/05/27 06:27:26;;;;;;;1.35;1.25;;;21.50;58.40;;;;;;5063337;28;20272;-71
2022/05/27 06:35:21;;;;;;;0.90;0.90;;;21.50;58.40;;;;;;5074594;28;20235;-71
2022/05/27 06:37:48;;;;;;;1.05;1.00;;;21.50;58.40;;;;;;5073720;28;20214;-71
2022/05/27 06:40:14;;;;;;;1.17;1.00;;;21.50;58.40;;;;;;5075954;28;20178;-71
2022/05/27 06:42:40;;;;;;;1.23;1.00;;;21.50;58.40;;;;;;5076565;28;20220;-71
2022/05/27 06:45:09;;;;;;;1.35;1.05;;;21.50;58.40;;;;;;5092775;28;20234;-71
2022/05/27 06:47:36;;;;;;;1.23;1.08;;;21.50;58.40;;;;;;5092454;28;20215;-71
2022/05/27 06:50:03;;;;;;;1.50;1.20;;;21.50;58.40;;;;;;5077529;28;20186;-71
2022/05/27 06:52:28;;;;;;;1.65;1.10;;;21.50;58.40;;;;;;5085251;28;20188;-71
2022/05/27 06:54:54;;;;;;;1.30;1.08;;;21.50;58.40;;;;;;5076590;28;20186;-71
2022/05/27 06:57:20;;;;;;;1.10;1.00;;;21.50;58.40;;;;;;5074896;28;20205;-71
2022/05/27 06:59:46;;;;;;;1.10;1.00;;;21.50;58.40;;;;;;5074288;28;20190;-71
2022/05/27 07:02:12;;;;;;;1.88;0.90;;;21.50;58.40;;;;;;5058245;28;20217;-71
2022/05/27 07:04:38;;;;;;;1.00;1.00;;;21.60;58.50;;;;;;5074946;28;20174;-71
2022/05/27 07:07:06;;;;;;;0.80;0.80;;;21.60;58.50;;;;;;5058866;28;20202;-71
2022/05/27 07:09:35;;;;;;;0.80;0.80;;;21.60;58.50;;;;;;5056170;28;20174;-70
2022/05/27 07:12:05;;;;;;;0.90;0.90;;;21.60;58.50;;;;;;5072723;28;20236;-70
2022/05/27 07:14:31;;;;;;;1.08;0.90;;;21.60;58.50;;;;;;5072358;28;20185;-70
2022/05/27 07:16:57;;;;;;;1.33;1.08;;;21.60;58.50;;;;;;5055354;28;20218;-70
2022/05/27 07:19:23;;;;;;;0.70;0.70;;;21.60;58.50;;;;;;5055740;28;20174;-70
2022/05/27 07:21:49;;;;;;;0.80;0.80;;;21.60;58.50;;;;;;5081974;28;20305;-70
2022/05/27 07:24:18;;;;;;;0.68;0.68;;;21.60;58.60;;;;;;5075697;28;20209;-70
2022/05/27 07:26:45;;;;;;;1.55;1.10;;;21.60;58.60;;;;;;5093353;28;20574;-70
2022/05/27 07:29:12;;;;;;;0.90;0.90;;;21.60;58.60;;;;;;5091975;28;20185;-70
2022/05/27 07:31:40;;;;;;;1.20;1.10;;;21.60;58.60;;;;;;5092215;28;20161;-71
2022/05/27 07:34:06;;;;;;;1.23;1.10;;;21.60;58.60;;;;;;5075261;28;20181;-71
2022/05/27 07:36:32;;;;;;;0.88;0.82;;;21.60;58.60;;;;;;5092109;28;20201;-70
2022/05/27 07:38:58;;;;;;;1.20;1.10;;;21.60;58.60;;;;;;5092934;28;20234;-70
2022/05/27 07:41:27;;;;;;;0.95;0.95;;;21.60;58.60;;;;;;5092331;28;20234;-71
2022/05/27 07:43:54;;;;;;;1.20;1.10;;;21.60;58.60;;;;;;5075336;28;20196;-71
2022/05/27 07:46:23;;;;;;;1.10;1.00;;;21.60;58.60;;;;;;5092965;28;20282;-70
2022/05/27 07:48:49;;;;;;;0.98;0.98;;;21.60;58.60;;;;;;5091833;28;20180;-70
2022/05/27 07:51:15;;;;;;;1.73;0.82;;;21.60;58.60;;;;;;5080362;28;20192;-70
2022/05/27 07:53:41;;;;;;;0.80;0.80;;;21.60;58.60;;;;;;5074411;28;20190;-70
2022/05/27 07:56:11;;;;;;;0.85;0.85;;;21.60;58.60;;;;;;5054770;28;20290;-70
2022/05/27 07:58:37;;;;;;;0.90;0.90;;;21.60;58.60;;;;;;5071971;28;20197;-70
2022/05/27 08:01:04;;;;;;;0.80;0.80;;;21.60;58.60;;;;;;5071170;28;20197;-70
2022/05/27 08:03:30;;;;;;;0.75;0.75;;;21.60;58.60;;;;;;5071148;28;20218;-70
2022/05/27 08:05:59;;;;;;;0.82;0.82;;;21.60;58.50;;;;;;5054472;28;20206;-69
2022/05/27 08:08:26;;;;;;;0.80;0.80;;;21.60;58.60;;;;;;5072796;28;20261;-70
2022/05/27 08:10:52;;;;;;;1.02;0.63;;;21.60;58.60;;;;;;5072340;28;20184;-70
2022/05/27 08:13:18;;;;;;;0.90;0.90;;;21.60;58.60;;;;;;5072373;28;20177;-70
2022/05/27 08:15:44;;;;;;;1.10;1.00;;;21.60;58.60;;;;;;5072175;28;20202;-70
2022/05/27 08:18:10;;;;;;;0.82;0.82;;;21.60;58.60;;;;;;5054719;28;20189;-70
2022/05/27 08:20:39;;;;;;;1.10;1.00;;;21.60;58.60;;;;;;5078811;28;20189;-70
2022/05/27 08:23:06;;;;;;;0.98;0.98;;;21.70;58.60;;;;;;5083700;28;20683;-70
2022/05/27 08:25:33;;;;;;;1.23;0.90;;;21.70;58.60;;;;;;5092386;28;20173;-70
2022/05/27 08:27:59;;;;;;;1.02;0.93;;;21.70;58.60;;;;;;5074428;28;20188;-70
2022/05/27 08:30:30;;;;;;;2.17;0.98;;;21.60;58.60;;;;;;5074608;28;20181;-70
2022/05/27 08:32:58;;;;;;;1.17;1.02;;;21.70;58.70;;;;;;5091566;28;20181;-70
2022/05/27 08:38:16;;;;;;;1.13;0.90;;;21.70;58.60;;;;;;5092263;28;20173;-70
2022/05/27 08:40:50;;;;;;;1.23;0.90;;;21.70;58.60;;;;;;5091201;28;20636;-69
2022/05/27 08:43:35;;;;;;;0.80;0.80;;;21.60;58.50;;;;;;5092356;28;20192;-70
2022/05/27 08:46:28;;;;;;;1.67;0.93;;;21.60;58.60;;;;;;5090867;28;20211;-70
2022/05/27 08:49:01;;;;;;;1.35;0.90;;;21.60;58.60;;;;;;5091119;28;20173;-70
2022/05/27 08:51:45;;;;;;;1.48;1.17;;;21.70;58.60;;;;;;5081005;28;20213;-70
2022/05/27 08:54:23;;;;;;;1.00;0.95;;;21.60;58.50;;;;;;5070891;28;20209;-69
2022/05/27 08:59:46;;;;;;;0.85;0.85;;;21.60;58.50;;;;;;5070543;28;20257;-69
2022/05/27 09:02:25;;;;;;;1.10;1.08;;;21.60;58.50;;;;;;5071669;28;20267;-70
2022/05/27 09:05:43;;;;;;;1.45;1.20;;;21.60;58.50;;;;;;5088727;28;20187;-70
2022/05/27 09:08:17;;;;;;;1.08;1.05;;;21.70;58.60;;;;;;5071551;28;20186;-70
2022/05/27 09:11:05;;;;;;;1.25;1.10;;;21.70;58.70;;;;;;5071733;28;20178;-70
2022/05/27 09:13:45;;;;;;;0.98;0.90;;;21.70;58.60;;;;;;5070756;28;20209;-70
2022/05/27 09:16:33;;;;;;;1.58;1.02;;;21.70;58.50;;;;;;5054941;28;20217;-69
2022/05/27 09:19:06;;;;;;;0.95;0.95;;;21.70;58.50;;;;;;5090738;28;20231;-70
2022/05/27 09:21:46;;;;;;;0.95;0.95;;;21.70;58.50;;;;;;5090502;28;20185;-69
2022/05/27 09:24:41;;;;;;;1.77;0.95;;;21.70;58.60;;;;;;5070666;28;20195;-69
2022/05/27 09:27:23;;;;;;;0.80;0.77;;;21.70;58.60;;;;;;5054139;28;20699;-70
2022/05/27 09:29:54;;;;;;;1.83;1.05;;;21.70;58.60;;;;;;5070364;28;20223;-70
2022/05/27 09:32:38;;;;;;;1.20;1.10;;;21.70;58.60;;;;;;5071633;28;20625;-70
2022/05/27 09:35:15;;;;;;;0.73;0.73;;;21.70;58.60;;;;;;5057901;28;20189;-70
2022/05/27 09:37:50;;;;;;;1.08;0.93;;;21.70;58.60;;;;;;5075082;28;20173;-70
2022/05/27 09:40:33;;;;;;;1.10;1.00;;;21.70;58.60;;;;;;5073917;28;20199;-70
2022/05/27 09:43:15;;;;;;;1.52;1.00;;;21.70;58.60;;;;;;5073999;28;20297;-70
2022/05/27 09:45:43;;;;;;;1.00;1.00;;;21.80;58.70;;;;;;5076487;28;20208;-70
2022/05/27 09:48:10;;;;;;;1.67;0.93;;;21.80;58.60;;;;;;5094269;28;20330;-70
2022/05/27 09:50:46;;;;;;;1.13;1.02;;;21.70;58.50;;;;;;5085457;28;20287;-69
2022/05/27 09:53:20;;;;;;;1.20;1.10;;;21.80;58.60;;;;;;5091575;28;20181;-71
2022/05/27 09:56:04;;;;;;;1.08;1.08;;;21.70;58.50;;;;;;5097133;28;20208;-71
2022/05/27 09:58:38;;;;;;;0.90;0.90;;;21.80;58.60;;;;;;5096142;28;20253;-71
2022/05/27 10:01:28;;;;;;;1.10;1.00;;;21.80;58.60;;;;;;5096057;28;20333;-70
2022/05/27 10:04:11;;;;;;;1.10;0.90;;;21.80;58.60;;;;;;5076055;28;20241;-71
2022/05/27 10:06:37;;;;;;;0.90;0.90;;;21.80;58.60;;;;;;5076203;28;20201;-71
2022/05/27 10:09:11;;;;;;;1.30;1.20;;;21.80;58.60;;;;;;5075822;28;20185;-71
2022/05/27 10:11:56;;;;;;;1.30;1.20;;;21.80;58.60;;;;;;5076163;28;20181;-71
2022/05/27 10:14:34;;;;;;;1.17;1.10;;;21.80;58.60;;;;;;5093477;28;20174;-71
2022/05/27 10:17:25;;;;;;;1.65;1.25;;;21.80;58.60;;;;;;5075860;28;20202;-71
2022/05/27 10:19:51;;;;;;;1.10;1.00;;;21.80;58.70;;;;;;5077062;28;20266;-71
2022/05/27 10:22:29;;;;;;;1.27;1.15;;;21.80;58.70;;;;;;5087057;28;20295;-71
2022/05/27 10:25:07;;;;;;;1.00;1.00;;;21.80;58.70;;;;;;5095036;28;20177;-71
2022/05/27 10:27:40;;;;;;;2.08;1.40;;;21.80;58.70;;;;;;5093101;28;20688;-70
2022/05/27 10:30:25;;;;;;;1.67;1.20;;;21.80;58.70;;;;;;5093262;28;20188;-70
2022/05/27 10:32:52;;;;;;;1.23;1.13;;;21.80;58.80;;;;;;5094934;28;20244;-70
2022/05/27 10:35:21;;;;;;;1.40;1.17;;;21.80;58.80;;;;;;5095151;28;20185;-70
2022/05/27 10:38:15;;;;;;;1.00;1.00;;;21.80;58.90;;;;;;5093602;28;20189;-72
2022/05/27 10:41:07;;;;;;;1.30;0.93;;;21.80;58.90;;;;;;5076675;28;20185;-70
2022/05/27 10:43:55;;;;;;;1.20;1.00;;;21.80;59.00;;;;;;5094815;28;20204;-70
2022/05/27 10:46:33;;;;;;;0.93;0.93;;;21.80;59.00;;;;;;5093761;28;20672;-71
2022/05/27 10:48:59;;;;;;;1.27;0.90;;;21.80;59.00;;;;;;5095213;28;20274;-70
2022/05/27 10:51:45;;;;;;;1.40;1.00;;;21.80;59.00;;;;;;5085576;28;20237;-70
2022/05/27 10:54:41;;;;;;;1.30;1.20;;;21.80;58.90;;;;;;5073986;28;20177;-69
2022/05/27 11:04:39;;;;;;;1.15;1.00;;;21.80;58.80;;;;;;5073075;28;20208;-70
2022/05/27 11:07:32;;;;;;;1.20;1.10;;;21.80;58.80;;;;;;5054464;28;20255;-70
2022/05/27 11:10:59;;;;;;;1.30;1.00;;;21.80;58.80;;;;;;5056550;28;20177;-71
2022/05/27 11:17:22;;;;;;;1.08;0.98;;;21.80;59.00;;;;;;5074444;28;20204;-71
2022/05/27 11:20:06;;;;;;;1.60;1.15;;;21.80;59.10;;;;;;5077211;28;20207;-71
2022/05/27 11:22:40;;;;;;;2.25;1.17;;;21.80;59.00;;;;;;5084873;28;20214;-71
2022/05/27 11:25:40;;;;;;;1.30;1.20;;;21.90;59.10;;;;;;5056007;28;20286;-71
2022/05/27 11:28:40;;;;;;;1.40;1.13;;;21.90;59.10;;;;;;5056245;28;20184;-71
2022/05/27 11:31:17;;;;;;;1.20;1.00;;;21.80;58.90;;;;;;5072229;28;20178;-71
2022/05/27 11:34:00;;;;;;;1.42;1.20;;;21.90;58.90;;;;;;5055472;28;20180;-72
2022/05/27 11:36:42;;;;;;;1.98;1.30;;;21.90;59.00;;;;;;5055752;28;20205;-70
2022/05/27 11:40:03;;;;;;;2.10;1.20;;;21.80;58.90;;;;;;5055997;28;20312;-70
2022/05/27 11:43:15;;;;;;;2.63;1.38;;;21.90;59.10;;;;;;5072211;28;20213;-71
2022/05/27 11:46:22;;;;;;;1.20;1.00;;;21.90;59.10;;;;;;5072170;28;20201;-71
2022/05/27 11:49:02;;;;;;;2.05;1.10;;;21.80;59.00;;;;;;5073352;28;20208;-71
2022/05/27 11:51:52;;;;;;;2.67;1.20;;;21.80;59.00;;;;;;5079997;28;20190;-70
2022/05/27 11:55:12;;;;;;;1.02;1.02;;;21.90;59.10;;;;;;5087374;28;20222;-71
2022/05/27 11:58:16;;;;;;;0.90;0.77;;;21.90;59.10;;;;;;5068175;28;20217;-71
2022/05/27 12:01:10;;;;;;;1.38;1.23;;;21.90;59.10;;;;;;5092187;28;20196;-71
2022/05/27 12:04:11;;;;;;;1.23;1.10;;;21.90;59.10;;;;;;5093250;28;20272;-71
2022/05/27 12:06:57;;;;;;;1.80;1.10;;;21.90;59.00;;;;;;5091649;28;20205;-71
2022/05/27 12:09:30;;;;;;;1.13;0.98;;;21.90;59.10;;;;;;5075273;28;20181;-70
2022/05/27 12:12:19;;;;;;;1.35;0.98;;;21.90;59.10;;;;;;5093387;28;20169;-71
2022/05/27 12:15:02;;;;;;;1.30;1.20;;;21.90;59.00;;;;;;5075340;28;20181;-71
2022/05/27 12:17:45;;;;;;;1.30;1.20;;;21.90;59.00;;;;;;5091857;28;20205;-71
2022/05/27 12:20:20;;;;;;;1.90;1.00;;;21.90;59.10;;;;;;5071901;28;20288;-70
2022/05/27 12:22:50;;;;;;;1.70;0.90;;;21.90;59.00;;;;;;5070893;28;20239;-71
2022/05/27 12:25:23;;;;;;;0.90;0.90;;;21.90;59.10;;;;;;5091774;28;20173;-71
2022/05/27 12:27:50;;;;;;;1.20;1.02;;;21.90;59.00;;;;;;5093387;28;20169;-71
2022/05/27 12:30:20;;;;;;;1.83;1.10;;;21.90;59.10;;;;;;5091818;28;20173;-71
2022/05/27 12:32:48;;;;;;;1.35;1.00;;;21.90;59.10;;;;;;5075005;28;20294;-71
2022/05/27 12:35:31;;;;;;;1.30;1.10;;;21.90;59.10;;;;;;5091606;28;20192;-71
2022/05/27 12:38:04;;;;;;;1.80;1.00;;;21.90;59.20;;;;;;5075624;28;20177;-70
2022/05/27 12:40:32;;;;;;;1.20;0.95;;;21.90;59.10;;;;;;5092027;28;20177;-70
2022/05/27 12:43:19;;;;;;;0.93;0.93;;;21.90;59.10;;;;;;5091800;28;20220;-71
2022/05/27 12:45:59;;;;;;;1.13;0.95;;;21.90;59.10;;;;;;5092984;28;20205;-71
2022/05/27 12:48:42;;;;;;;1.70;1.05;;;21.90;59.10;;;;;;5092136;28;20164;-70
2022/05/27 12:51:31;;;;;;;2.25;1.10;;;21.90;59.10;;;;;;5084782;28;20181;-71
2022/05/27 12:53:59;;;;;;;0.90;0.90;;;21.90;59.10;;;;;;5082822;28;20196;-71
2022/05/27 13:02:14;;;;;;;1.35;0.88;;;21.90;59.10;;;;;;5092797;28;20745;-70
2022/05/27 13:05:00;;;;;;;1.10;1.10;;;21.90;59.10;;;;;;5091328;28;20179;-71
2022/05/27 13:07:28;;;;;;;0.90;0.90;;;21.90;59.10;;;;;;5093515;28;20243;-70
2022/05/27 13:10:17;;;;;;;1.70;0.98;;;22.00;59.10;;;;;;5078318;28;20547;-70
2022/05/27 13:12:46;;;;;;;1.60;1.20;;;22.00;59.30;;;;;;5096328;28;20192;-71
2022/05/27 13:15:55;;;;;;;1.30;1.20;;;22.00;59.20;;;;;;5096706;28;20210;-71
2022/05/27 13:18:51;;;;;;;1.13;1.00;;;21.90;59.10;;;;;;5095277;28;20223;-70
2022/05/27 13:21:47;;;;;;;0.88;0.88;;;21.90;59.10;;;;;;5070430;28;20185;-71
2022/05/27 13:24:12;;;;;;;0.95;0.82;;;21.90;59.20;;;;;;5089500;28;20185;-71
2022/05/27 13:26:47;;;;;;;1.50;1.05;;;21.90;59.20;;;;;;5095376;28;20209;-71
2022/05/27 13:29:36;;;;;;;0.90;0.80;;;22.00;59.30;;;;;;5096483;28;20245;-71
2022/05/27 13:32:10;;;;;;;1.75;1.20;;;21.90;59.20;;;;;;5095328;28;20267;-71
2022/05/27 13:34:45;;;;;;;4.85;1.08;;;22.00;59.20;;;;;;5078430;28;20557;-71
2022/05/27 13:37:33;;;;;;;1.08;1.00;;;21.90;59.10;;;;;;5096175;28;20196;-71
2022/05/27 13:40:11;;;;;;;0.80;0.80;;;22.00;59.20;;;;;;5108390;28;20558;-71
2022/05/27 13:42:45;;;;;;;1.20;1.08;;;22.00;59.30;;;;;;5115957;28;20226;-71
2022/05/27 13:45:26;;;;;;;0.85;0.77;;;21.90;59.30;;;;;;5116355;28;20168;-72
2022/05/27 13:48:00;;;;;;;1.55;1.00;;;22.00;59.20;;;;;;5099763;28;20607;-70
2022/05/27 13:50:47;;;;;;;1.10;0.90;;;21.90;59.30;;;;;;5116286;28;20176;-71
2022/05/27 13:53:26;;;;;;;1.77;0.98;;;21.90;59.10;;;;;;5072004;28;20181;-71
2022/05/27 13:56:13;;;;;;;1.35;1.00;;;22.00;59.10;;;;;;5090584;28;20197;-70
2022/05/27 13:59:05;;;;;;;1.63;1.27;;;22.00;59.10;;;;;;5075181;28;20182;-71
2022/05/27 14:01:52;;;;;;;1.10;1.00;;;22.00;59.10;;;;;;5077536;28;20189;-70
2022/05/27 14:05:01;;;;;;;1.17;1.02;;;22.00;59.20;;;;;;5077149;28;20178;-71